sensor_id;sensor_type;location;lat;lon;timestamp;P1;durP1;ratioP1;P2;durP2;ratioP2
29330;SDS011;16331;52.528;13.342;2023-04-25T00:01:56;7.32;;;2.58;;
29330;SDS011;16331;52.528;13.342;2023-04-25T00:04:22;3.63;;;2.53;;
29330;SDS011;16331;52.528;13.342;2023-04-25T00:06:48;4.57;;;2.42;;
29330;SDS011;16331;52.528;13.342;2023-04-25T00:09:17;7.47;;;2.92;;
29330;SDS011;16331;52.528;13.342;2023-04-25T00:11:43;3.88;;;2.13;;
29330;SDS011;16331;52.528;13.342;2023-04-25T00:14:09;4.75;;;2.67;;
29330;SDS011;16331;52.528;13.342;2023-04-25T00:16:36;8.90;;;2.25;;
29330;SDS011;16331;52.528;13.342;2023-04-25T00:19:02;3.80;;;2.20;;
29330;SDS011;16331;52.528;13.342;2023-04-25T00:21:28;3.80;;;2.05;;
29330;SDS011;16331;52.528;13.342;2023-04-25T00:23:56;3.83;;;1.98;;
29330;SDS011;16331;52.528;13.342;2023-04-25T00:26:22;5.90;;;2.05;;
29330;SDS011;16331;52.528;13.342;2023-04-25T00:28:48;7.63;;;2.30;;
29330;SDS011;16331;52.528;13.342;2023-04-25T00:31:14;3.92;;;1.83;;
29330;SDS011;16331;52.528;13.342;2023-04-25T00:33:42;7.03;;;2.33;;
29330;SDS011;16331;52.528;13.342;2023-04-25T00:36:10;3.75;;;2.10;;
29330;SDS011;16331;52.528;13.342;2023-04-25T00:38:37;7.57;;;2.42;;
29330;SDS011;16331;52.528;13.342;2023-04-25T00:41:05;3.50;;;2.30;;
29330;SDS011;16331;52.528;13.342;2023-04-25T00:43:32;5.07;;;2.10;;
29330;SDS011;16331;52.528;13.342;2023-04-25T00:45:59;4.20;;;2.22;;
29330;SDS011;16331;52.528;13.342;2023-04-25T00:48:26;2.65;;;2.03;;
29330;SDS011;16331;52.528;13.342;2023-04-25T00:50:53;7.53;;;2.03;;
29330;SDS011;16331;52.528;13.342;2023-04-25T00:53:22;4.35;;;2.22;;
29330;SDS011;16331;52.528;13.342;2023-04-25T00:55:49;3.33;;;2.20;;
29330;SDS011;16331;52.528;13.342;2023-04-25T00:58:20;5.38;;;2.33;;
29330;SDS011;16331;52.528;13.342;2023-04-25T01:00:48;6.00;;;2.60;;
29330;SDS011;16331;52.528;13.342;2023-04-25T01:03:17;6.55;;;2.28;;
29330;SDS011;16331;52.528;13.342;2023-04-25T01:05:45;9.88;;;2.17;;
29330;SDS011;16331;52.528;13.342;2023-04-25T01:08:12;5.28;;;2.22;;
29330;SDS011;16331;52.528;13.342;2023-04-25T01:10:39;6.15;;;2.70;;
29330;SDS011;16331;52.528;13.342;2023-04-25T01:13:06;7.35;;;2.47;;
29330;SDS011;16331;52.528;13.342;2023-04-25T01:15:32;4.95;;;2.30;;
29330;SDS011;16331;52.528;13.342;2023-04-25T01:18:00;4.15;;;2.28;;
29330;SDS011;16331;52.528;13.342;2023-04-25T01:20:27;4.25;;;2.05;;
29330;SDS011;16331;52.528;13.342;2023-04-25T01:22:57;8.98;;;2.60;;
29330;SDS011;16331;52.528;13.342;2023-04-25T01:25:24;6.65;;;2.33;;
29330;SDS011;16331;52.528;13.342;2023-04-25T01:27:50;4.10;;;2.08;;
29330;SDS011;16331;52.528;13.342;2023-04-25T01:30:17;6.90;;;2.22;;
29330;SDS011;16331;52.528;13.342;2023-04-25T01:32:43;8.48;;;3.20;;
29330;SDS011;16331;52.528;13.342;2023-04-25T01:35:11;5.63;;;2.30;;
29330;SDS011;16331;52.528;13.342;2023-04-25T01:37:41;5.78;;;2.40;;
29330;SDS011;16331;52.528;13.342;2023-04-25T01:40:08;15.88;;;3.17;;
29330;SDS011;16331;52.528;13.342;2023-04-25T01:42:36;9.95;;;2.53;;
29330;SDS011;16331;52.528;13.342;2023-04-25T01:45:04;10.82;;;2.70;;
29330;SDS011;16331;52.528;13.342;2023-04-25T01:47:33;11.68;;;4.90;;
29330;SDS011;16331;52.528;13.342;2023-04-25T01:50:03;4.45;;;2.22;;
29330;SDS011;16331;52.528;13.342;2023-04-25T01:52:29;4.07;;;2.15;;
29330;SDS011;16331;52.528;13.342;2023-04-25T01:54:56;4.95;;;2.42;;
29330;SDS011;16331;52.528;13.342;2023-04-25T01:57:25;8.13;;;2.67;;
29330;SDS011;16331;52.528;13.342;2023-04-25T01:59:51;7.13;;;2.83;;
29330;SDS011;16331;52.528;13.342;2023-04-25T02:02:22;8.50;;;2.65;;
29330;SDS011;16331;52.528;13.342;2023-04-25T02:04:48;5.47;;;2.92;;
29330;SDS011;16331;52.528;13.342;2023-04-25T02:07:14;8.60;;;2.72;;
29330;SDS011;16331;52.528;13.342;2023-04-25T02:09:40;6.25;;;2.60;;
29330;SDS011;16331;52.528;13.342;2023-04-25T02:12:07;9.43;;;3.40;;
29330;SDS011;16331;52.528;13.342;2023-04-25T02:14:34;7.05;;;3.10;;
29330;SDS011;16331;52.528;13.342;2023-04-25T02:17:01;5.20;;;2.75;;
29330;SDS011;16331;52.528;13.342;2023-04-25T02:19:29;8.32;;;3.17;;
29330;SDS011;16331;52.528;13.342;2023-04-25T02:21:56;12.70;;;3.50;;
29330;SDS011;16331;52.528;13.342;2023-04-25T02:24:23;7.47;;;3.00;;
29330;SDS011;16331;52.528;13.342;2023-04-25T02:26:49;9.70;;;2.90;;
29330;SDS011;16331;52.528;13.342;2023-04-25T02:29:15;7.05;;;2.75;;
29330;SDS011;16331;52.528;13.342;2023-04-25T02:31:42;8.70;;;3.00;;
29330;SDS011;16331;52.528;13.342;2023-04-25T02:34:08;8.63;;;3.42;;
29330;SDS011;16331;52.528;13.342;2023-04-25T02:36:35;4.65;;;3.03;;
29330;SDS011;16331;52.528;13.342;2023-04-25T02:39:01;7.47;;;2.90;;
29330;SDS011;16331;52.528;13.342;2023-04-25T02:41:28;5.15;;;3.20;;
29330;SDS011;16331;52.528;13.342;2023-04-25T02:43:54;4.18;;;3.15;;
29330;SDS011;16331;52.528;13.342;2023-04-25T02:46:22;7.00;;;3.30;;
29330;SDS011;16331;52.528;13.342;2023-04-25T02:48:48;4.28;;;2.95;;
29330;SDS011;16331;52.528;13.342;2023-04-25T02:51:14;9.10;;;3.20;;
29330;SDS011;16331;52.528;13.342;2023-04-25T02:53:41;7.47;;;3.17;;
29330;SDS011;16331;52.528;13.342;2023-04-25T02:56:07;9.50;;;3.45;;
29330;SDS011;16331;52.528;13.342;2023-04-25T02:58:33;8.85;;;3.50;;
29330;SDS011;16331;52.528;13.342;2023-04-25T03:00:59;12.18;;;3.75;;
29330;SDS011;16331;52.528;13.342;2023-04-25T03:03:27;8.52;;;3.55;;
29330;SDS011;16331;52.528;13.342;2023-04-25T03:05:53;7.95;;;3.10;;
29330;SDS011;16331;52.528;13.342;2023-04-25T03:08:19;12.27;;;3.70;;
29330;SDS011;16331;52.528;13.342;2023-04-25T03:10:45;13.40;;;3.63;;
29330;SDS011;16331;52.528;13.342;2023-04-25T03:13:12;8.05;;;3.95;;
29330;SDS011;16331;52.528;13.342;2023-04-25T03:15:39;6.38;;;3.47;;
29330;SDS011;16331;52.528;13.342;2023-04-25T03:18:05;10.80;;;3.22;;
29330;SDS011;16331;52.528;13.342;2023-04-25T03:20:31;11.80;;;4.10;;
29330;SDS011;16331;52.528;13.342;2023-04-25T03:22:57;7.28;;;3.42;;
29330;SDS011;16331;52.528;13.342;2023-04-25T03:25:23;8.68;;;3.30;;
29330;SDS011;16331;52.528;13.342;2023-04-25T03:27:50;7.72;;;4.03;;
29330;SDS011;16331;52.528;13.342;2023-04-25T03:30:17;9.60;;;4.07;;
29330;SDS011;16331;52.528;13.342;2023-04-25T03:32:43;8.50;;;3.72;;
29330;SDS011;16331;52.528;13.342;2023-04-25T03:35:10;9.70;;;3.95;;
29330;SDS011;16331;52.528;13.342;2023-04-25T03:37:36;11.95;;;5.68;;
29330;SDS011;16331;52.528;13.342;2023-04-25T03:40:02;9.52;;;3.95;;
29330;SDS011;16331;52.528;13.342;2023-04-25T03:42:29;7.65;;;3.45;;
29330;SDS011;16331;52.528;13.342;2023-04-25T03:44:55;8.45;;;4.15;;
29330;SDS011;16331;52.528;13.342;2023-04-25T03:47:21;10.82;;;3.30;;
29330;SDS011;16331;52.528;13.342;2023-04-25T03:49:50;11.50;;;3.33;;
29330;SDS011;16331;52.528;13.342;2023-04-25T03:52:18;7.57;;;3.53;;
29330;SDS011;16331;52.528;13.342;2023-04-25T03:54:46;6.45;;;3.28;;
29330;SDS011;16331;52.528;13.342;2023-04-25T03:57:12;13.50;;;3.90;;
29330;SDS011;16331;52.528;13.342;2023-04-25T03:59:38;5.25;;;3.00;;
29330;SDS011;16331;52.528;13.342;2023-04-25T04:02:05;11.90;;;4.00;;
29330;SDS011;16331;52.528;13.342;2023-04-25T04:04:33;9.23;;;4.05;;
29330;SDS011;16331;52.528;13.342;2023-04-25T04:07:01;9.55;;;3.33;;
29330;SDS011;16331;52.528;13.342;2023-04-25T04:09:27;12.10;;;3.83;;
29330;SDS011;16331;52.528;13.342;2023-04-25T04:11:53;5.47;;;3.45;;
29330;SDS011;16331;52.528;13.342;2023-04-25T04:14:21;12.13;;;3.63;;
29330;SDS011;16331;52.528;13.342;2023-04-25T04:16:47;9.05;;;3.58;;
29330;SDS011;16331;52.528;13.342;2023-04-25T04:19:13;8.52;;;3.63;;
29330;SDS011;16331;52.528;13.342;2023-04-25T04:21:40;8.00;;;3.20;;
29330;SDS011;16331;52.528;13.342;2023-04-25T04:24:06;12.30;;;3.53;;
29330;SDS011;16331;52.528;13.342;2023-04-25T04:26:32;10.07;;;3.92;;
29330;SDS011;16331;52.528;13.342;2023-04-25T04:28:59;8.00;;;3.80;;
29330;SDS011;16331;52.528;13.342;2023-04-25T04:31:26;9.32;;;3.30;;
29330;SDS011;16331;52.528;13.342;2023-04-25T04:33:55;5.45;;;2.63;;
29330;SDS011;16331;52.528;13.342;2023-04-25T04:36:22;9.13;;;2.95;;
29330;SDS011;16331;52.528;13.342;2023-04-25T04:38:49;10.13;;;3.45;;
29330;SDS011;16331;52.528;13.342;2023-04-25T04:41:15;11.77;;;3.05;;
29330;SDS011;16331;52.528;13.342;2023-04-25T04:43:41;7.78;;;3.70;;
29330;SDS011;16331;52.528;13.342;2023-04-25T04:46:08;4.20;;;3.13;;
29330;SDS011;16331;52.528;13.342;2023-04-25T04:48:35;11.93;;;3.55;;
29330;SDS011;16331;52.528;13.342;2023-04-25T04:51:02;7.25;;;3.38;;
29330;SDS011;16331;52.528;13.342;2023-04-25T04:53:29;14.55;;;3.53;;
29330;SDS011;16331;52.528;13.342;2023-04-25T04:55:55;6.93;;;3.20;;
29330;SDS011;16331;52.528;13.342;2023-04-25T04:58:23;8.40;;;3.70;;
29330;SDS011;16331;52.528;13.342;2023-04-25T05:00:49;13.20;;;3.53;;
29330;SDS011;16331;52.528;13.342;2023-04-25T05:03:15;8.68;;;3.05;;
29330;SDS011;16331;52.528;13.342;2023-04-25T05:05:41;8.40;;;3.28;;
29330;SDS011;16331;52.528;13.342;2023-04-25T05:08:27;8.15;;;3.50;;
29330;SDS011;16331;52.528;13.342;2023-04-25T05:10:54;11.95;;;3.88;;
29330;SDS011;16331;52.528;13.342;2023-04-25T05:13:21;8.05;;;3.05;;
29330;SDS011;16331;52.528;13.342;2023-04-25T05:15:48;7.65;;;3.47;;
29330;SDS011;16331;52.528;13.342;2023-04-25T05:18:14;9.48;;;3.50;;
29330;SDS011;16331;52.528;13.342;2023-04-25T05:21:02;8.35;;;3.58;;
29330;SDS011;16331;52.528;13.342;2023-04-25T05:23:28;11.50;;;3.65;;
29330;SDS011;16331;52.528;13.342;2023-04-25T05:25:55;5.22;;;2.65;;
29330;SDS011;16331;52.528;13.342;2023-04-25T05:28:23;7.30;;;4.00;;
29330;SDS011;16331;52.528;13.342;2023-04-25T05:30:49;12.63;;;3.30;;
29330;SDS011;16331;52.528;13.342;2023-04-25T05:33:16;7.03;;;3.47;;
29330;SDS011;16331;52.528;13.342;2023-04-25T05:35:44;5.15;;;2.65;;
29330;SDS011;16331;52.528;13.342;2023-04-25T05:38:10;6.70;;;4.05;;
29330;SDS011;16331;52.528;13.342;2023-04-25T05:40:37;10.40;;;3.30;;
29330;SDS011;16331;52.528;13.342;2023-04-25T05:43:03;9.25;;;3.47;;
29330;SDS011;16331;52.528;13.342;2023-04-25T05:45:29;8.40;;;3.97;;
29330;SDS011;16331;52.528;13.342;2023-04-25T05:47:55;10.25;;;3.90;;
29330;SDS011;16331;52.528;13.342;2023-04-25T05:50:23;9.57;;;3.90;;
29330;SDS011;16331;52.528;13.342;2023-04-25T05:52:50;10.60;;;3.50;;
29330;SDS011;16331;52.528;13.342;2023-04-25T05:55:16;19.77;;;4.28;;
29330;SDS011;16331;52.528;13.342;2023-04-25T05:57:42;10.93;;;3.65;;
29330;SDS011;16331;52.528;13.342;2023-04-25T06:00:11;11.30;;;4.43;;
29330;SDS011;16331;52.528;13.342;2023-04-25T06:02:44;14.20;;;4.10;;
29330;SDS011;16331;52.528;13.342;2023-04-25T06:05:22;8.57;;;4.03;;
29330;SDS011;16331;52.528;13.342;2023-04-25T06:07:48;10.50;;;4.50;;
29330;SDS011;16331;52.528;13.342;2023-04-25T06:10:14;9.50;;;4.43;;
29330;SDS011;16331;52.528;13.342;2023-04-25T06:12:43;17.15;;;4.70;;
29330;SDS011;16331;52.528;13.342;2023-04-25T06:15:31;12.05;;;4.43;;
29330;SDS011;16331;52.528;13.342;2023-04-25T06:17:57;9.10;;;4.03;;
29330;SDS011;16331;52.528;13.342;2023-04-25T06:20:24;8.57;;;4.13;;
29330;SDS011;16331;52.528;13.342;2023-04-25T06:22:51;7.78;;;3.65;;
29330;SDS011;16331;52.528;13.342;2023-04-25T06:25:18;8.00;;;4.57;;
29330;SDS011;16331;52.528;13.342;2023-04-25T06:27:46;9.48;;;4.53;;
29330;SDS011;16331;52.528;13.342;2023-04-25T06:30:12;10.57;;;4.35;;
29330;SDS011;16331;52.528;13.342;2023-04-25T06:32:38;12.38;;;4.30;;
29330;SDS011;16331;52.528;13.342;2023-04-25T06:35:05;11.50;;;4.60;;
29330;SDS011;16331;52.528;13.342;2023-04-25T06:37:31;8.82;;;3.70;;
29330;SDS011;16331;52.528;13.342;2023-04-25T06:39:59;9.00;;;4.28;;
29330;SDS011;16331;52.528;13.342;2023-04-25T06:42:42;12.48;;;4.38;;
29330;SDS011;16331;52.528;13.342;2023-04-25T06:45:09;17.73;;;5.07;;
29330;SDS011;16331;52.528;13.342;2023-04-25T06:47:36;15.20;;;5.03;;
29330;SDS011;16331;52.528;13.342;2023-04-25T06:50:02;10.65;;;4.93;;
29330;SDS011;16331;52.528;13.342;2023-04-25T06:52:31;10.75;;;5.20;;
29330;SDS011;16331;52.528;13.342;2023-04-25T06:54:57;12.90;;;4.90;;
29330;SDS011;16331;52.528;13.342;2023-04-25T06:57:23;21.52;;;5.85;;
29330;SDS011;16331;52.528;13.342;2023-04-25T06:59:50;10.13;;;5.05;;
29330;SDS011;16331;52.528;13.342;2023-04-25T07:02:16;10.45;;;4.13;;
29330;SDS011;16331;52.528;13.342;2023-04-25T07:04:46;10.95;;;4.30;;
29330;SDS011;16331;52.528;13.342;2023-04-25T07:07:13;9.60;;;3.95;;
29330;SDS011;16331;52.528;13.342;2023-04-25T07:09:39;8.32;;;3.75;;
29330;SDS011;16331;52.528;13.342;2023-04-25T07:12:05;8.05;;;3.88;;
29330;SDS011;16331;52.528;13.342;2023-04-25T07:14:31;7.25;;;4.05;;
29330;SDS011;16331;52.528;13.342;2023-04-25T07:16:58;13.20;;;3.83;;
29330;SDS011;16331;52.528;13.342;2023-04-25T07:19:24;24.02;;;4.45;;
29330;SDS011;16331;52.528;13.342;2023-04-25T07:21:51;10.25;;;4.00;;
29330;SDS011;16331;52.528;13.342;2023-04-25T07:24:18;7.72;;;3.65;;
29330;SDS011;16331;52.528;13.342;2023-04-25T07:26:44;13.18;;;4.15;;
29330;SDS011;16331;52.528;13.342;2023-04-25T07:29:11;11.88;;;3.53;;
29330;SDS011;16331;52.528;13.342;2023-04-25T07:31:39;18.02;;;4.47;;
29330;SDS011;16331;52.528;13.342;2023-04-25T07:34:05;12.57;;;4.20;;
29330;SDS011;16331;52.528;13.342;2023-04-25T07:36:31;10.70;;;3.50;;
29330;SDS011;16331;52.528;13.342;2023-04-25T07:38:58;16.80;;;3.55;;
29330;SDS011;16331;52.528;13.342;2023-04-25T07:41:26;7.32;;;3.13;;
29330;SDS011;16331;52.528;13.342;2023-04-25T07:43:52;14.95;;;3.72;;
29330;SDS011;16331;52.528;13.342;2023-04-25T07:46:21;8.70;;;2.85;;
29330;SDS011;16331;52.528;13.342;2023-04-25T07:48:48;14.40;;;4.13;;
29330;SDS011;16331;52.528;13.342;2023-04-25T07:51:14;14.88;;;5.22;;
29330;SDS011;16331;52.528;13.342;2023-04-25T07:53:40;12.35;;;2.92;;
29330;SDS011;16331;52.528;13.342;2023-04-25T07:56:06;14.35;;;3.95;;
29330;SDS011;16331;52.528;13.342;2023-04-25T07:58:32;10.73;;;2.63;;
29330;SDS011;16331;52.528;13.342;2023-04-25T08:01:01;19.20;;;3.40;;
29330;SDS011;16331;52.528;13.342;2023-04-25T08:03:27;11.18;;;3.22;;
29330;SDS011;16331;52.528;13.342;2023-04-25T08:05:54;27.63;;;3.38;;
29330;SDS011;16331;52.528;13.342;2023-04-25T08:08:20;19.25;;;4.32;;
29330;SDS011;16331;52.528;13.342;2023-04-25T08:10:48;13.13;;;3.33;;
29330;SDS011;16331;52.528;13.342;2023-04-25T08:13:14;20.30;;;3.80;;
29330;SDS011;16331;52.528;13.342;2023-04-25T08:15:41;14.20;;;2.95;;
29330;SDS011;16331;52.528;13.342;2023-04-25T08:18:07;12.75;;;3.05;;
29330;SDS011;16331;52.528;13.342;2023-04-25T08:20:54;21.58;;;3.80;;
29330;SDS011;16331;52.528;13.342;2023-04-25T08:23:20;10.38;;;3.75;;
29330;SDS011;16331;52.528;13.342;2023-04-25T08:25:47;11.43;;;3.17;;
29330;SDS011;16331;52.528;13.342;2023-04-25T08:28:13;21.02;;;3.63;;
29330;SDS011;16331;52.528;13.342;2023-04-25T08:30:40;15.32;;;2.90;;
29330;SDS011;16331;52.528;13.342;2023-04-25T08:33:06;11.98;;;3.13;;
29330;SDS011;16331;52.528;13.342;2023-04-25T08:35:32;13.35;;;3.60;;
29330;SDS011;16331;52.528;13.342;2023-04-25T08:37:59;15.45;;;2.88;;
29330;SDS011;16331;52.528;13.342;2023-04-25T08:40:26;11.88;;;3.22;;
29330;SDS011;16331;52.528;13.342;2023-04-25T08:42:56;12.63;;;3.08;;
29330;SDS011;16331;52.528;13.342;2023-04-25T08:45:23;15.65;;;3.47;;
29330;SDS011;16331;52.528;13.342;2023-04-25T08:47:52;17.90;;;3.35;;
29330;SDS011;16331;52.528;13.342;2023-04-25T08:50:19;19.73;;;2.30;;
29330;SDS011;16331;52.528;13.342;2023-04-25T08:52:47;10.73;;;2.15;;
29330;SDS011;16331;52.528;13.342;2023-04-25T08:55:17;13.35;;;2.25;;
29330;SDS011;16331;52.528;13.342;2023-04-25T08:57:45;9.88;;;2.38;;
29330;SDS011;16331;52.528;13.342;2023-04-25T09:00:12;11.95;;;2.70;;
29330;SDS011;16331;52.528;13.342;2023-04-25T09:02:39;17.05;;;2.50;;
29330;SDS011;16331;52.528;13.342;2023-04-25T09:05:07;16.33;;;4.95;;
29330;SDS011;16331;52.528;13.342;2023-04-25T09:07:34;12.25;;;2.88;;
29330;SDS011;16331;52.528;13.342;2023-04-25T09:10:02;11.02;;;2.03;;
29330;SDS011;16331;52.528;13.342;2023-04-25T09:12:28;15.10;;;2.20;;
29330;SDS011;16331;52.528;13.342;2023-04-25T09:15:03;5.40;;;2.10;;
29330;SDS011;16331;52.528;13.342;2023-04-25T09:17:38;7.47;;;2.20;;
29330;SDS011;16331;52.528;13.342;2023-04-25T09:20:12;17.27;;;2.85;;
29330;SDS011;16331;52.528;13.342;2023-04-25T09:22:40;17.48;;;2.47;;
29330;SDS011;16331;52.528;13.342;2023-04-25T09:25:08;14.73;;;2.17;;
29330;SDS011;16331;52.528;13.342;2023-04-25T09:27:51;15.05;;;2.85;;
29330;SDS011;16331;52.528;13.342;2023-04-25T09:30:19;11.05;;;3.05;;
29330;SDS011;16331;52.528;13.342;2023-04-25T09:33:08;17.63;;;2.10;;
29330;SDS011;16331;52.528;13.342;2023-04-25T09:35:36;14.25;;;2.10;;
29330;SDS011;16331;52.528;13.342;2023-04-25T09:38:13;13.25;;;2.65;;
29330;SDS011;16331;52.528;13.342;2023-04-25T09:40:43;7.20;;;1.27;;
29330;SDS011;16331;52.528;13.342;2023-04-25T09:43:20;18.08;;;2.55;;
29330;SDS011;16331;52.528;13.342;2023-04-25T09:45:49;9.95;;;1.75;;
29330;SDS011;16331;52.528;13.342;2023-04-25T09:48:18;6.57;;;1.75;;
29330;SDS011;16331;52.528;13.342;2023-04-25T09:51:27;8.45;;;2.22;;
29330;SDS011;16331;52.528;13.342;2023-04-25T09:53:36;4.80;;;1.73;;
29330;SDS011;16331;52.528;13.342;2023-04-25T09:56:05;8.77;;;2.30;;
29330;SDS011;16331;52.528;13.342;2023-04-25T09:58:32;11.50;;;2.08;;
29330;SDS011;16331;52.528;13.342;2023-04-25T10:01:09;9.38;;;1.90;;
29330;SDS011;16331;52.528;13.342;2023-04-25T10:03:37;13.27;;;2.17;;
29330;SDS011;16331;52.528;13.342;2023-04-25T10:06:09;8.27;;;2.30;;
29330;SDS011;16331;52.528;13.342;2023-04-25T10:08:39;6.22;;;2.10;;
29330;SDS011;16331;52.528;13.342;2023-04-25T10:11:07;11.55;;;2.05;;
29330;SDS011;16331;52.528;13.342;2023-04-25T10:13:35;8.35;;;2.50;;
29330;SDS011;16331;52.528;13.342;2023-04-25T10:16:02;5.68;;;1.65;;
29330;SDS011;16331;52.528;13.342;2023-04-25T10:18:30;8.15;;;1.70;;
29330;SDS011;16331;52.528;13.342;2023-04-25T10:20:59;8.82;;;2.20;;
29330;SDS011;16331;52.528;13.342;2023-04-25T10:23:27;6.45;;;2.55;;
29330;SDS011;16331;52.528;13.342;2023-04-25T10:25:56;7.53;;;2.50;;
29330;SDS011;16331;52.528;13.342;2023-04-25T10:28:23;3.63;;;1.50;;
29330;SDS011;16331;52.528;13.342;2023-04-25T10:31:00;5.45;;;2.28;;
29330;SDS011;16331;52.528;13.342;2023-04-25T10:33:35;6.53;;;2.40;;
29330;SDS011;16331;52.528;13.342;2023-04-25T10:36:12;10.00;;;2.17;;
29330;SDS011;16331;52.528;13.342;2023-04-25T10:38:45;8.60;;;2.80;;
29330;SDS011;16331;52.528;13.342;2023-04-25T10:41:12;7.10;;;1.83;;
29330;SDS011;16331;52.528;13.342;2023-04-25T10:43:46;16.67;;;2.85;;
29330;SDS011;16331;52.528;13.342;2023-04-25T10:46:22;11.30;;;2.67;;
29330;SDS011;16331;52.528;13.342;2023-04-25T10:48:53;10.77;;;1.75;;
29330;SDS011;16331;52.528;13.342;2023-04-25T10:51:22;10.68;;;1.48;;
29330;SDS011;16331;52.528;13.342;2023-04-25T10:58:50;8.73;;;2.35;;
29330;SDS011;16331;52.528;13.342;2023-04-25T11:01:20;6.10;;;2.42;;
29330;SDS011;16331;52.528;13.342;2023-04-25T11:03:56;7.68;;;1.83;;
29330;SDS011;16331;52.528;13.342;2023-04-25T11:06:29;6.97;;;1.83;;
29330;SDS011;16331;52.528;13.342;2023-04-25T11:08:56;8.82;;;2.00;;
29330;SDS011;16331;52.528;13.342;2023-04-25T11:11:25;10.40;;;2.53;;
29330;SDS011;16331;52.528;13.342;2023-04-25T11:13:54;7.15;;;1.75;;
29330;SDS011;16331;52.528;13.342;2023-04-25T11:16:27;5.20;;;1.70;;
29330;SDS011;16331;52.528;13.342;2023-04-25T11:18:56;6.45;;;1.65;;
29330;SDS011;16331;52.528;13.342;2023-04-25T11:21:27;8.35;;;2.10;;
29330;SDS011;16331;52.528;13.342;2023-04-25T11:23:59;9.10;;;1.73;;
29330;SDS011;16331;52.528;13.342;2023-04-25T11:26:26;7.15;;;1.83;;
29330;SDS011;16331;52.528;13.342;2023-04-25T11:28:59;4.75;;;1.48;;
29330;SDS011;16331;52.528;13.342;2023-04-25T11:31:25;6.05;;;1.67;;
29330;SDS011;16331;52.528;13.342;2023-04-25T11:33:53;8.45;;;1.73;;
29330;SDS011;16331;52.528;13.342;2023-04-25T11:36:22;10.10;;;1.85;;
29330;SDS011;16331;52.528;13.342;2023-04-25T11:38:50;6.60;;;1.48;;
29330;SDS011;16331;52.528;13.342;2023-04-25T11:41:18;9.35;;;2.30;;
29330;SDS011;16331;52.528;13.342;2023-04-25T11:43:45;13.65;;;2.38;;
29330;SDS011;16331;52.528;13.342;2023-04-25T11:46:12;6.30;;;2.03;;
29330;SDS011;16331;52.528;13.342;2023-04-25T11:48:41;10.40;;;1.92;;
29330;SDS011;16331;52.528;13.342;2023-04-25T11:51:09;7.15;;;2.13;;
29330;SDS011;16331;52.528;13.342;2023-04-25T11:53:40;6.95;;;1.95;;
29330;SDS011;16331;52.528;13.342;2023-04-25T11:56:10;9.50;;;2.30;;
29330;SDS011;16331;52.528;13.342;2023-04-25T12:01:29;12.02;;;1.75;;
29330;SDS011;16331;52.528;13.342;2023-04-25T12:03:57;5.35;;;1.60;;
29330;SDS011;16331;52.528;13.342;2023-04-25T12:06:38;7.15;;;1.67;;
29330;SDS011;16331;52.528;13.342;2023-04-25T12:09:07;10.13;;;1.98;;
29330;SDS011;16331;52.528;13.342;2023-04-25T12:11:54;8.50;;;1.60;;
29330;SDS011;16331;52.528;13.342;2023-04-25T12:14:25;6.10;;;1.63;;
29330;SDS011;16331;52.528;13.342;2023-04-25T12:16:56;6.25;;;2.45;;
29330;SDS011;16331;52.528;13.342;2023-04-25T12:19:24;8.75;;;1.58;;
29330;SDS011;16331;52.528;13.342;2023-04-25T12:21:51;5.47;;;1.92;;
29330;SDS011;16331;52.528;13.342;2023-04-25T12:24:22;10.35;;;1.67;;
29330;SDS011;16331;52.528;13.342;2023-04-25T12:26:58;6.22;;;1.60;;
29330;SDS011;16331;52.528;13.342;2023-04-25T12:29:30;9.38;;;2.30;;
29330;SDS011;16331;52.528;13.342;2023-04-25T12:31:59;5.18;;;1.95;;
29330;SDS011;16331;52.528;13.342;2023-04-25T12:34:27;5.75;;;1.42;;
29330;SDS011;16331;52.528;13.342;2023-04-25T12:36:54;6.05;;;1.63;;
29330;SDS011;16331;52.528;13.342;2023-04-25T12:39:22;4.68;;;1.77;;
29330;SDS011;16331;52.528;13.342;2023-04-25T12:41:50;11.70;;;2.47;;
29330;SDS011;16331;52.528;13.342;2023-04-25T12:44:20;9.00;;;2.20;;
29330;SDS011;16331;52.528;13.342;2023-04-25T12:46:46;6.43;;;2.10;;
29330;SDS011;16331;52.528;13.342;2023-04-25T12:49:13;7.13;;;1.63;;
29330;SDS011;16331;52.528;13.342;2023-04-25T12:51:41;8.18;;;1.25;;
29330;SDS011;16331;52.528;13.342;2023-04-25T12:54:07;6.53;;;1.60;;
29330;SDS011;16331;52.528;13.342;2023-04-25T12:56:35;8.60;;;2.15;;
29330;SDS011;16331;52.528;13.342;2023-04-25T12:59:01;3.70;;;1.60;;
29330;SDS011;16331;52.528;13.342;2023-04-25T13:01:28;3.88;;;1.10;;
29330;SDS011;16331;52.528;13.342;2023-04-25T13:03:57;14.10;;;2.00;;
29330;SDS011;16331;52.528;13.342;2023-04-25T13:06:23;10.82;;;1.80;;
29330;SDS011;16331;52.528;13.342;2023-04-25T13:08:51;9.27;;;1.67;;
29330;SDS011;16331;52.528;13.342;2023-04-25T13:11:18;5.05;;;1.48;;
29330;SDS011;16331;52.528;13.342;2023-04-25T13:13:45;4.35;;;1.20;;
29330;SDS011;16331;52.528;13.342;2023-04-25T13:16:14;6.15;;;1.27;;
29330;SDS011;16331;52.528;13.342;2023-04-25T13:18:43;7.68;;;1.45;;
29330;SDS011;16331;52.528;13.342;2023-04-25T13:21:10;1.98;;;1.08;;
29330;SDS011;16331;52.528;13.342;2023-04-25T13:23:37;6.93;;;1.27;;
29330;SDS011;16331;52.528;13.342;2023-04-25T13:26:03;7.82;;;1.70;;
29330;SDS011;16331;52.528;13.342;2023-04-25T13:28:30;5.32;;;1.00;;
29330;SDS011;16331;52.528;13.342;2023-04-25T13:30:56;11.07;;;1.58;;
29330;SDS011;16331;52.528;13.342;2023-04-25T13:33:23;5.18;;;1.08;;
29330;SDS011;16331;52.528;13.342;2023-04-25T13:35:51;7.60;;;1.23;;
29330;SDS011;16331;52.528;13.342;2023-04-25T13:38:21;12.80;;;1.90;;
29330;SDS011;16331;52.528;13.342;2023-04-25T13:40:49;6.25;;;1.40;;
29330;SDS011;16331;52.528;13.342;2023-04-25T13:43:18;5.20;;;1.20;;
29330;SDS011;16331;52.528;13.342;2023-04-25T13:45:48;7.97;;;1.88;;
29330;SDS011;16331;52.528;13.342;2023-04-25T13:48:15;5.13;;;1.88;;
29330;SDS011;16331;52.528;13.342;2023-04-25T13:50:41;2.97;;;1.80;;
29330;SDS011;16331;52.528;13.342;2023-04-25T13:53:08;4.45;;;1.42;;
29330;SDS011;16331;52.528;13.342;2023-04-25T13:55:37;9.75;;;1.40;;
29330;SDS011;16331;52.528;13.342;2023-04-25T13:58:03;5.85;;;1.35;;
29330;SDS011;16331;52.528;13.342;2023-04-25T14:00:33;5.75;;;1.50;;
29330;SDS011;16331;52.528;13.342;2023-04-25T14:03:03;5.15;;;1.67;;
29330;SDS011;16331;52.528;13.342;2023-04-25T14:05:33;4.95;;;2.28;;
29330;SDS011;16331;52.528;13.342;2023-04-25T14:08:19;9.05;;;1.55;;
29330;SDS011;16331;52.528;13.342;2023-04-25T14:10:46;5.20;;;1.55;;
29330;SDS011;16331;52.528;13.342;2023-04-25T14:13:12;7.68;;;1.38;;
29330;SDS011;16331;52.528;13.342;2023-04-25T14:15:38;9.77;;;1.80;;
29330;SDS011;16331;52.528;13.342;2023-04-25T14:18:05;6.70;;;1.42;;
29330;SDS011;16331;52.528;13.342;2023-04-25T14:20:31;5.18;;;1.35;;
29330;SDS011;16331;52.528;13.342;2023-04-25T14:22:57;7.13;;;1.70;;
29330;SDS011;16331;52.528;13.342;2023-04-25T14:25:24;4.80;;;1.30;;
29330;SDS011;16331;52.528;13.342;2023-04-25T14:27:50;7.55;;;1.65;;
29330;SDS011;16331;52.528;13.342;2023-04-25T14:30:18;8.18;;;1.73;;
29330;SDS011;16331;52.528;13.342;2023-04-25T14:32:45;6.35;;;1.30;;
29330;SDS011;16331;52.528;13.342;2023-04-25T14:35:13;4.25;;;2.72;;
29330;SDS011;16331;52.528;13.342;2023-04-25T14:37:39;5.30;;;1.20;;
29330;SDS011;16331;52.528;13.342;2023-04-25T14:40:07;6.72;;;1.40;;
29330;SDS011;16331;52.528;13.342;2023-04-25T14:42:36;4.35;;;1.67;;
29330;SDS011;16331;52.528;13.342;2023-04-25T14:45:04;5.00;;;2.15;;